OMD278 KATL-KMZJ
Flight info
| Callsign | OMD278 |
|---|---|
| Flight time | 3h 56m |
| Altitude | 34000 |
| Route | CUTTN2 HANKO MEM WASKO TXK FUZ J66 EWM SSO |
| Aircraft | A320/M-SDE3FGHIRWY/LB1 |
Departure
| Time | 2026-05-09 02:28 |
|---|---|
| Airport | Hartsfield Jackson Atlanta International Airport (KATL) |
Arrival
| Time | 2026-05-09 06:24 |
|---|---|
| Airport | Pinal Airpark (KMZJ) |
| Time | Latitude | Longitude | Altitude | Speed | Heading |
|---|---|---|---|---|---|
| 2026-05-09 01:55 | 33.64282 | -84.42984 | 1036 ft | 0 kts | 87° |
| 2026-05-09 01:57 | 33.64255 | -84.42993 | 1037 ft | 0 kts | 78° |
| 2026-05-09 01:59 | 33.64258 | -84.42979 | 1036 ft | 0 kts | 78° |
| 2026-05-09 02:01 | 33.64255 | -84.42993 | 1036 ft | 0 kts | 78° |
| 2026-05-09 02:21 | 33.64254 | -84.42990 | 1036 ft | 0 kts | 102° |
| 2026-05-09 02:21 | 33.64247 | -84.42992 | 1036 ft | 1 kts | 189° |
| 2026-05-09 02:21 | 33.64245 | -84.43022 | 1036 ft | 6 kts | 275° |
| 2026-05-09 02:22 | 33.64280 | -84.43065 | 1036 ft | 10 kts | 348° |
| 2026-05-09 02:22 | 33.64329 | -84.43066 | 1036 ft | 0 kts | 360° |
| 2026-05-09 02:23 | 33.64336 | -84.43066 | 1036 ft | 4 kts | 360° |
| 2026-05-09 02:23 | 33.64382 | -84.43066 | 1036 ft | 9 kts | 359° |
| 2026-05-09 02:23 | 33.64456 | -84.43039 | 1036 ft | 14 kts | 57° |
| 2026-05-09 02:24 | 33.64461 | -84.42900 | 1036 ft | 19 kts | 90° |
| 2026-05-09 02:24 | 33.64464 | -84.42722 | 1036 ft | 23 kts | 84° |
| 2026-05-09 02:24 | 33.64470 | -84.42516 | 1035 ft | 26 kts | 89° |
| 2026-05-09 02:24 | 33.64469 | -84.42306 | 1035 ft | 22 kts | 90° |
| 2026-05-09 02:25 | 33.64532 | -84.42135 | 1035 ft | 22 kts | 60° |
| 2026-05-09 02:25 | 33.64543 | -84.41942 | 1035 ft | 25 kts | 90° |
| 2026-05-09 02:25 | 33.64543 | -84.41730 | 1036 ft | 23 kts | 89° |
| 2026-05-09 02:25 | 33.64543 | -84.41530 | 1036 ft | 26 kts | 90° |
| 2026-05-09 02:26 | 33.64543 | -84.41303 | 1036 ft | 29 kts | 89° |
| 2026-05-09 02:26 | 33.64542 | -84.41064 | 1036 ft | 29 kts | 91° |
| 2026-05-09 02:26 | 33.64545 | -84.40837 | 1035 ft | 21 kts | 85° |
| 2026-05-09 02:26 | 33.64570 | -84.40664 | 1035 ft | 20 kts | 90° |
| 2026-05-09 02:27 | 33.64624 | -84.40571 | 1033 ft | 16 kts | 6° |
| 2026-05-09 02:27 | 33.64679 | -84.40648 | 1033 ft | 16 kts | 268° |
| 2026-05-09 02:27 | 33.64679 | -84.40941 | 1036 ft | 71 kts | 270° |
| 2026-05-09 02:27 | 33.64679 | -84.41830 | 1037 ft | 138 kts | 270° |
| 2026-05-09 02:28 | 33.64677 | -84.43161 | 1391 ft | 161 kts | 269° |
| 2026-05-09 02:28 | 33.64671 | -84.44488 | 2207 ft | 162 kts | 268° |
| 2026-05-09 02:28 | 33.64798 | -84.45848 | 2980 ft | 168 kts | 279° |
| 2026-05-09 02:28 | 33.65083 | -84.47319 | 3383 ft | 193 kts | 279° |
| 2026-05-09 02:29 | 33.65384 | -84.49008 | 3803 ft | 218 kts | 279° |
| 2026-05-09 02:29 | 33.65714 | -84.50903 | 4348 ft | 244 kts | 280° |
| 2026-05-09 02:29 | 33.66081 | -84.52984 | 5164 ft | 260 kts | 281° |
| 2026-05-09 02:29 | 33.66465 | -84.55107 | 6302 ft | 260 kts | 279° |
| 2026-05-09 02:30 | 33.66840 | -84.57230 | 7421 ft | 261 kts | 279° |
| 2026-05-09 02:30 | 33.67212 | -84.59367 | 8494 ft | 263 kts | 279° |
| 2026-05-09 02:30 | 33.67576 | -84.61535 | 9462 ft | 268 kts | 279° |
| 2026-05-09 02:30 | 33.67940 | -84.63742 | 9966 ft | 271 kts | 279° |
| 2026-05-09 02:31 | 33.68315 | -84.66024 | 10527 ft | 289 kts | 279° |
| 2026-05-09 02:31 | 33.68722 | -84.68470 | 11043 ft | 305 kts | 279° |
| 2026-05-09 02:31 | 33.69146 | -84.70990 | 11865 ft | 311 kts | 280° |
| 2026-05-09 02:31 | 33.69580 | -84.73547 | 12765 ft | 314 kts | 280° |
| 2026-05-09 02:32 | 33.70042 | -84.76113 | 13661 ft | 317 kts | 284° |
| 2026-05-09 02:32 | 33.70718 | -84.78647 | 14484 ft | 320 kts | 286° |
| 2026-05-09 02:32 | 33.71410 | -84.81195 | 15285 ft | 322 kts | 286° |
| 2026-05-09 02:32 | 33.72105 | -84.83761 | 16070 ft | 324 kts | 286° |
| 2026-05-09 02:33 | 33.72799 | -84.86336 | 16870 ft | 326 kts | 286° |
| 2026-05-09 02:33 | 33.73498 | -84.88937 | 17671 ft | 328 kts | 286° |
| 2026-05-09 02:33 | 33.74200 | -84.91548 | 18455 ft | 330 kts | 286° |
| 2026-05-09 02:33 | 33.74910 | -84.94189 | 19191 ft | 332 kts | 285° |
| 2026-05-09 02:34 | 33.75618 | -84.96830 | 19982 ft | 332 kts | 285° |
| 2026-05-09 02:34 | 33.76325 | -84.99471 | 20788 ft | 333 kts | 285° |
| 2026-05-09 02:34 | 33.77035 | -85.02116 | 21571 ft | 333 kts | 285° |
| 2026-05-09 02:34 | 33.77750 | -85.04774 | 22356 ft | 334 kts | 284° |
| 2026-05-09 02:35 | 33.78466 | -85.07437 | 23127 ft | 335 kts | 284° |
| 2026-05-09 02:35 | 33.79180 | -85.10107 | 23828 ft | 336 kts | 284° |
| 2026-05-09 02:35 | 33.79895 | -85.12792 | 24416 ft | 338 kts | 283° |
| 2026-05-09 02:35 | 33.80609 | -85.15484 | 24973 ft | 340 kts | 283° |
| 2026-05-09 02:36 | 33.81331 | -85.18198 | 25526 ft | 342 kts | 282° |
| 2026-05-09 02:36 | 33.81744 | -85.20018 | 25879 ft | 340 kts | 277° |
| 2026-05-09 02:36 | 33.81995 | -85.22827 | 26420 ft | 339 kts | 270° |
| 2026-05-09 02:36 | 33.82123 | -85.25665 | 26945 ft | 341 kts | 270° |
| 2026-05-09 02:37 | 33.82249 | -85.28516 | 27467 ft | 342 kts | 270° |
| 2026-05-09 02:37 | 33.82376 | -85.31386 | 27973 ft | 344 kts | 269° |
| 2026-05-09 02:37 | 33.82503 | -85.34266 | 28488 ft | 346 kts | 269° |
| 2026-05-09 02:37 | 33.82631 | -85.37169 | 29000 ft | 348 kts | 269° |
| 2026-05-09 02:38 | 33.82760 | -85.40082 | 29498 ft | 350 kts | 269° |
| 2026-05-09 02:38 | 33.82891 | -85.43053 | 30006 ft | 352 kts | 269° |
| 2026-05-09 02:38 | 33.83021 | -85.46005 | 30426 ft | 355 kts | 268° |
| 2026-05-09 02:38 | 33.83152 | -85.48937 | 30810 ft | 357 kts | 268° |
| 2026-05-09 02:39 | 33.83286 | -85.51965 | 31193 ft | 359 kts | 268° |
| 2026-05-09 02:39 | 33.83415 | -85.54976 | 31565 ft | 362 kts | 268° |
| 2026-05-09 02:39 | 33.83544 | -85.58003 | 31930 ft | 364 kts | 268° |
| 2026-05-09 02:39 | 33.83675 | -85.61050 | 32396 ft | 364 kts | 268° |
| 2026-05-09 02:40 | 33.83860 | -85.64085 | 32927 ft | 365 kts | 272° |
| 2026-05-09 02:40 | 33.84478 | -85.67066 | 33465 ft | 373 kts | 281° |
| 2026-05-09 02:40 | 33.85347 | -85.70010 | 33910 ft | 373 kts | 281° |
| 2026-05-09 02:41 | 33.87052 | -85.75791 | 34017 ft | 357 kts | 280° |
| 2026-05-09 02:41 | 33.88707 | -85.81475 | 34016 ft | 365 kts | 280° |
| 2026-05-09 02:42 | 33.90384 | -85.87261 | 34015 ft | 367 kts | 280° |
| 2026-05-09 02:42 | 33.91223 | -85.90168 | 34137 ft | 368 kts | 280° |
| 2026-05-09 02:42 | 33.92060 | -85.93063 | 34634 ft | 366 kts | 280° |
| 2026-05-09 02:42 | 33.92897 | -85.95940 | 35206 ft | 362 kts | 281° |
| 2026-05-09 02:43 | 33.93725 | -85.98783 | 35783 ft | 357 kts | 281° |
| 2026-05-09 02:43 | 33.94542 | -86.01588 | 36345 ft | 353 kts | 280° |
| 2026-05-09 02:43 | 33.95346 | -86.04354 | 36887 ft | 349 kts | 280° |
| 2026-05-09 02:43 | 33.96142 | -86.07099 | 37419 ft | 345 kts | 280° |
| 2026-05-09 02:44 | 33.96927 | -86.09812 | 37888 ft | 342 kts | 280° |
| 2026-05-09 02:44 | 33.97701 | -86.12502 | 37997 ft | 340 kts | 280° |
| 2026-05-09 02:44 | 33.98475 | -86.15191 | 38018 ft | 338 kts | 280° |
| 2026-05-09 02:45 | 34.00011 | -86.20535 | 38015 ft | 337 kts | 280° |
| 2026-05-09 02:45 | 34.01536 | -86.25859 | 38018 ft | 337 kts | 280° |
| 2026-05-09 02:46 | 34.03059 | -86.31197 | 38017 ft | 336 kts | 280° |
| 2026-05-09 02:46 | 34.04586 | -86.36527 | 38022 ft | 336 kts | 280° |
| 2026-05-09 02:47 | 34.06107 | -86.41864 | 38020 ft | 336 kts | 280° |
| 2026-05-09 02:47 | 34.07629 | -86.47196 | 38026 ft | 337 kts | 280° |
| 2026-05-09 02:48 | 34.09149 | -86.52534 | 38032 ft | 337 kts | 280° |
| 2026-05-09 02:48 | 34.10664 | -86.57882 | 38026 ft | 337 kts | 280° |
| 2026-05-09 02:49 | 34.12180 | -86.63223 | 38030 ft | 336 kts | 280° |
| 2026-05-09 02:49 | 34.13691 | -86.68559 | 38030 ft | 336 kts | 280° |
| 2026-05-09 02:50 | 34.15196 | -86.73890 | 38033 ft | 336 kts | 280° |
| 2026-05-09 02:50 | 34.16695 | -86.79218 | 38032 ft | 335 kts | 279° |
| 2026-05-09 02:51 | 34.18199 | -86.84549 | 38027 ft | 335 kts | 280° |
| 2026-05-09 02:51 | 34.19700 | -86.89877 | 38034 ft | 335 kts | 279° |
| 2026-05-09 02:52 | 34.21201 | -86.95232 | 38031 ft | 335 kts | 279° |
| 2026-05-09 02:52 | 34.22679 | -87.00524 | 38032 ft | 334 kts | 279° |
| 2026-05-09 02:53 | 34.24175 | -87.05882 | 38031 ft | 334 kts | 279° |
| 2026-05-09 02:53 | 34.25651 | -87.11202 | 38025 ft | 334 kts | 279° |
| 2026-05-09 02:54 | 34.27130 | -87.16522 | 38020 ft | 334 kts | 279° |
| 2026-05-09 02:54 | 34.28605 | -87.21833 | 38014 ft | 333 kts | 279° |
| 2026-05-09 02:55 | 34.30080 | -87.27148 | 38011 ft | 333 kts | 279° |
| 2026-05-09 02:55 | 34.31545 | -87.32452 | 37998 ft | 333 kts | 279° |
| 2026-05-09 02:56 | 34.33012 | -87.37767 | 38000 ft | 333 kts | 279° |
| 2026-05-09 02:56 | 34.34479 | -87.43071 | 37996 ft | 332 kts | 279° |
| 2026-05-09 02:57 | 34.35939 | -87.48377 | 37993 ft | 332 kts | 279° |
| 2026-05-09 02:57 | 34.37393 | -87.53686 | 37990 ft | 332 kts | 279° |
| 2026-05-09 02:58 | 34.38850 | -87.59000 | 37988 ft | 332 kts | 279° |
| 2026-05-09 02:58 | 34.40304 | -87.64309 | 37988 ft | 332 kts | 279° |
| 2026-05-09 02:59 | 34.41754 | -87.69624 | 37986 ft | 332 kts | 279° |
| 2026-05-09 02:59 | 34.43197 | -87.74938 | 37986 ft | 332 kts | 279° |
| 2026-05-09 03:00 | 34.44642 | -87.80253 | 37988 ft | 332 kts | 279° |
| 2026-05-09 03:00 | 34.46090 | -87.85577 | 37986 ft | 333 kts | 279° |
| 2026-05-09 03:01 | 34.47529 | -87.90902 | 37983 ft | 333 kts | 279° |
| 2026-05-09 03:01 | 34.48976 | -87.96233 | 37979 ft | 333 kts | 279° |
| 2026-05-09 03:02 | 34.50416 | -88.01571 | 37981 ft | 333 kts | 279° |
| 2026-05-09 03:02 | 34.51851 | -88.06912 | 37982 ft | 333 kts | 279° |
| 2026-05-09 03:03 | 34.53284 | -88.12262 | 37983 ft | 333 kts | 279° |
| 2026-05-09 03:03 | 34.54725 | -88.17647 | 37985 ft | 334 kts | 279° |
| 2026-05-09 03:04 | 34.56157 | -88.23004 | 37987 ft | 334 kts | 279° |
| 2026-05-09 03:04 | 34.57588 | -88.28360 | 37984 ft | 334 kts | 279° |
| 2026-05-09 03:05 | 34.59018 | -88.33722 | 37984 ft | 334 kts | 279° |
| 2026-05-09 03:05 | 34.60441 | -88.39095 | 37989 ft | 334 kts | 279° |
| 2026-05-09 03:06 | 34.61871 | -88.44470 | 37995 ft | 335 kts | 279° |
| 2026-05-09 03:06 | 34.63303 | -88.49849 | 38002 ft | 335 kts | 279° |
| 2026-05-09 03:07 | 34.64726 | -88.55234 | 38000 ft | 335 kts | 279° |
| 2026-05-09 03:07 | 34.66142 | -88.60612 | 38005 ft | 335 kts | 279° |
| 2026-05-09 03:08 | 34.67558 | -88.66005 | 38000 ft | 335 kts | 279° |
| 2026-05-09 03:08 | 34.68976 | -88.71391 | 37998 ft | 335 kts | 279° |
| 2026-05-09 03:09 | 34.70391 | -88.76783 | 37996 ft | 335 kts | 279° |
| 2026-05-09 03:09 | 34.71801 | -88.82177 | 37992 ft | 335 kts | 279° |
| 2026-05-09 03:10 | 34.73209 | -88.87572 | 37992 ft | 335 kts | 279° |
| 2026-05-09 03:10 | 34.74622 | -88.92978 | 37988 ft | 335 kts | 279° |
| 2026-05-09 03:11 | 34.76027 | -88.98380 | 37981 ft | 335 kts | 279° |
| 2026-05-09 03:11 | 34.77432 | -89.03789 | 37981 ft | 335 kts | 279° |
| 2026-05-09 03:12 | 34.78839 | -89.09204 | 37981 ft | 335 kts | 279° |
| 2026-05-09 03:12 | 34.80010 | -89.13739 | 37982 ft | 335 kts | 279° |
| 2026-05-09 03:13 | 34.82100 | -89.21867 | 37983 ft | 336 kts | 279° |
| 2026-05-09 03:13 | 34.83495 | -89.27291 | 37982 ft | 336 kts | 279° |
| 2026-05-09 03:14 | 34.84891 | -89.32722 | 37978 ft | 336 kts | 279° |
| 2026-05-09 03:14 | 34.86284 | -89.38161 | 37979 ft | 337 kts | 279° |
| 2026-05-09 03:15 | 34.87679 | -89.43599 | 37976 ft | 337 kts | 279° |
| 2026-05-09 03:15 | 34.89071 | -89.49045 | 37977 ft | 337 kts | 279° |
| 2026-05-09 03:16 | 34.90461 | -89.54497 | 37978 ft | 337 kts | 279° |
| 2026-05-09 03:16 | 34.91849 | -89.59950 | 37963 ft | 337 kts | 279° |
| 2026-05-09 03:17 | 34.93235 | -89.65416 | 37967 ft | 337 kts | 279° |
| 2026-05-09 03:17 | 34.94616 | -89.70888 | 37975 ft | 338 kts | 279° |
| 2026-05-09 03:18 | 34.96004 | -89.76359 | 37971 ft | 338 kts | 279° |
| 2026-05-09 03:18 | 34.97385 | -89.81838 | 37974 ft | 338 kts | 279° |
| 2026-05-09 03:19 | 34.98760 | -89.87318 | 37977 ft | 338 kts | 279° |
| 2026-05-09 03:19 | 35.00130 | -89.92804 | 37982 ft | 338 kts | 279° |
| 2026-05-09 03:20 | 35.00885 | -89.98346 | 37981 ft | 328 kts | 264° |
| 2026-05-09 03:20 | 34.99678 | -90.03655 | 37973 ft | 328 kts | 250° |
| 2026-05-09 03:21 | 34.97898 | -90.08783 | 37965 ft | 328 kts | 250° |
| 2026-05-09 03:21 | 34.96128 | -90.13917 | 37961 ft | 329 kts | 250° |
| 2026-05-09 03:22 | 34.94354 | -90.19052 | 37941 ft | 329 kts | 250° |
| 2026-05-09 03:22 | 34.92576 | -90.24180 | 37933 ft | 329 kts | 250° |
| 2026-05-09 03:23 | 34.90795 | -90.29308 | 37949 ft | 328 kts | 250° |
| 2026-05-09 03:23 | 34.89011 | -90.34430 | 37954 ft | 328 kts | 250° |
| 2026-05-09 03:24 | 34.87226 | -90.39547 | 37953 ft | 328 kts | 250° |
| 2026-05-09 03:24 | 34.85447 | -90.44654 | 37953 ft | 328 kts | 250° |
| 2026-05-09 03:25 | 34.83665 | -90.49768 | 37957 ft | 328 kts | 250° |
| 2026-05-09 03:25 | 34.81877 | -90.54869 | 37952 ft | 328 kts | 250° |
| 2026-05-09 03:26 | 34.80086 | -90.59968 | 37953 ft | 327 kts | 250° |
| 2026-05-09 03:26 | 34.78299 | -90.65065 | 37950 ft | 327 kts | 250° |
| 2026-05-09 03:27 | 34.76506 | -90.70149 | 37944 ft | 327 kts | 250° |
| 2026-05-09 03:27 | 34.74711 | -90.75236 | 37938 ft | 327 kts | 250° |
| 2026-05-09 03:28 | 34.72921 | -90.80319 | 37941 ft | 327 kts | 250° |
| 2026-05-09 03:28 | 34.71130 | -90.85394 | 37946 ft | 327 kts | 250° |
| 2026-05-09 03:29 | 34.69340 | -90.90465 | 37937 ft | 327 kts | 250° |
| 2026-05-09 03:29 | 34.67539 | -90.95534 | 37928 ft | 326 kts | 250° |
| 2026-05-09 03:30 | 34.65738 | -91.00599 | 37932 ft | 326 kts | 250° |
| 2026-05-09 03:30 | 34.63940 | -91.05652 | 37931 ft | 326 kts | 249° |
| 2026-05-09 03:31 | 34.62145 | -91.10699 | 37937 ft | 326 kts | 250° |
| 2026-05-09 03:31 | 34.60330 | -91.15780 | 37940 ft | 326 kts | 249° |
| 2026-05-09 03:32 | 34.58525 | -91.20827 | 37944 ft | 326 kts | 249° |
| 2026-05-09 03:32 | 34.56723 | -91.25872 | 37938 ft | 326 kts | 249° |
| 2026-05-09 03:33 | 34.54916 | -91.30918 | 37952 ft | 326 kts | 249° |
| 2026-05-09 03:33 | 34.53105 | -91.35963 | 37953 ft | 326 kts | 249° |
| 2026-05-09 03:34 | 34.51289 | -91.41000 | 37953 ft | 326 kts | 249° |
| 2026-05-09 03:34 | 34.49471 | -91.46042 | 37952 ft | 326 kts | 249° |
| 2026-05-09 03:35 | 34.47656 | -91.51076 | 37957 ft | 326 kts | 249° |
| 2026-05-09 03:35 | 34.45833 | -91.56105 | 37957 ft | 326 kts | 249° |
| 2026-05-09 03:36 | 34.44009 | -91.61142 | 37957 ft | 326 kts | 249° |
| 2026-05-09 03:36 | 34.42187 | -91.66172 | 37953 ft | 326 kts | 249° |
| 2026-05-09 03:37 | 34.40363 | -91.71194 | 37948 ft | 326 kts | 249° |
| 2026-05-09 03:37 | 34.38534 | -91.76212 | 37943 ft | 326 kts | 249° |
| 2026-05-09 03:38 | 34.36708 | -91.81227 | 37946 ft | 326 kts | 249° |
| 2026-05-09 03:38 | 34.34877 | -91.86252 | 37948 ft | 326 kts | 249° |
| 2026-05-09 03:39 | 34.33052 | -91.91272 | 37951 ft | 326 kts | 249° |
| 2026-05-09 03:39 | 34.31213 | -91.96296 | 37954 ft | 326 kts | 249° |
| 2026-05-09 03:40 | 34.29370 | -92.01314 | 37952 ft | 326 kts | 249° |
| 2026-05-09 03:40 | 34.27528 | -92.06330 | 37949 ft | 326 kts | 249° |
| 2026-05-09 03:41 | 34.25684 | -92.11342 | 37948 ft | 326 kts | 249° |
| 2026-05-09 03:41 | 34.23843 | -92.16351 | 37942 ft | 326 kts | 248° |
| 2026-05-09 03:42 | 34.21994 | -92.21358 | 37940 ft | 326 kts | 248° |
| 2026-05-09 03:42 | 34.20145 | -92.26358 | 37932 ft | 326 kts | 248° |
| 2026-05-09 03:43 | 34.18293 | -92.31361 | 37926 ft | 326 kts | 248° |
| 2026-05-09 03:43 | 34.16439 | -92.36371 | 37917 ft | 327 kts | 248° |
| 2026-05-09 03:44 | 34.14587 | -92.41379 | 37919 ft | 327 kts | 248° |
| 2026-05-09 03:44 | 34.12727 | -92.46391 | 37918 ft | 327 kts | 248° |
| 2026-05-09 03:45 | 34.10862 | -92.51405 | 37914 ft | 328 kts | 248° |
| 2026-05-09 03:45 | 34.08981 | -92.56451 | 37912 ft | 328 kts | 248° |
| 2026-05-09 03:46 | 34.07101 | -92.61474 | 37914 ft | 329 kts | 248° |
| 2026-05-09 03:46 | 34.05222 | -92.66506 | 37915 ft | 329 kts | 248° |
| 2026-05-09 03:47 | 34.03337 | -92.71534 | 37918 ft | 330 kts | 248° |
| 2026-05-09 03:47 | 34.01767 | -92.75711 | 37928 ft | 330 kts | 248° |
| 2026-05-09 03:48 | 33.99869 | -92.80759 | 37928 ft | 330 kts | 248° |
| 2026-05-09 03:48 | 33.97978 | -92.85801 | 37932 ft | 331 kts | 248° |
| 2026-05-09 03:49 | 33.96075 | -92.90854 | 37934 ft | 331 kts | 247° |
| 2026-05-09 03:49 | 33.94168 | -92.95898 | 37937 ft | 331 kts | 247° |
| 2026-05-09 03:50 | 33.92258 | -93.00949 | 37937 ft | 332 kts | 247° |
| 2026-05-09 03:50 | 33.90346 | -93.06006 | 37930 ft | 332 kts | 247° |
| 2026-05-09 03:51 | 33.88428 | -93.11063 | 37929 ft | 333 kts | 247° |
| 2026-05-09 03:51 | 33.86506 | -93.16132 | 37921 ft | 333 kts | 247° |
| 2026-05-09 03:52 | 33.84576 | -93.21208 | 37916 ft | 334 kts | 247° |
| 2026-05-09 03:52 | 33.82644 | -93.26284 | 37911 ft | 334 kts | 247° |
| 2026-05-09 03:53 | 33.80708 | -93.31373 | 37900 ft | 335 kts | 247° |
| 2026-05-09 03:53 | 33.78761 | -93.36471 | 37903 ft | 336 kts | 247° |
| 2026-05-09 03:54 | 33.76793 | -93.41599 | 37901 ft | 336 kts | 247° |
| 2026-05-09 03:54 | 33.74832 | -93.46703 | 37899 ft | 336 kts | 247° |
| 2026-05-09 03:55 | 33.72870 | -93.51810 | 37894 ft | 337 kts | 247° |
| 2026-05-09 03:55 | 33.70901 | -93.56923 | 37898 ft | 338 kts | 247° |
| 2026-05-09 03:56 | 33.68931 | -93.62050 | 37890 ft | 338 kts | 247° |
| 2026-05-09 03:56 | 33.66963 | -93.67181 | 37892 ft | 339 kts | 247° |
| 2026-05-09 03:57 | 33.64978 | -93.72324 | 37897 ft | 340 kts | 247° |
| 2026-05-09 03:57 | 33.62993 | -93.77473 | 37905 ft | 341 kts | 246° |
| 2026-05-09 03:58 | 33.60990 | -93.82640 | 37918 ft | 342 kts | 246° |
| 2026-05-09 03:58 | 33.58979 | -93.87814 | 37932 ft | 342 kts | 246° |
| 2026-05-09 03:59 | 33.56968 | -93.92992 | 37945 ft | 343 kts | 246° |
| 2026-05-09 03:59 | 33.54956 | -93.98172 | 37967 ft | 343 kts | 246° |
| 2026-05-09 04:00 | 33.52931 | -94.03358 | 37981 ft | 343 kts | 246° |
| 2026-05-09 04:00 | 33.51134 | -94.08643 | 37979 ft | 343 kts | 256° |
| 2026-05-09 04:01 | 33.50095 | -94.14234 | 37961 ft | 344 kts | 256° |
| 2026-05-09 04:01 | 33.49042 | -94.19817 | 37944 ft | 344 kts | 256° |
| 2026-05-09 04:02 | 33.47984 | -94.25420 | 37927 ft | 344 kts | 256° |
| 2026-05-09 04:02 | 33.46930 | -94.31004 | 37924 ft | 345 kts | 255° |
| 2026-05-09 04:03 | 33.45858 | -94.36621 | 37899 ft | 345 kts | 255° |
| 2026-05-09 04:03 | 33.44792 | -94.42230 | 37887 ft | 345 kts | 255° |
| 2026-05-09 04:04 | 33.43731 | -94.47832 | 37888 ft | 345 kts | 255° |
| 2026-05-09 04:04 | 33.42662 | -94.53440 | 37909 ft | 345 kts | 255° |
| 2026-05-09 04:05 | 33.41586 | -94.59038 | 37890 ft | 345 kts | 255° |
| 2026-05-09 04:05 | 33.40513 | -94.64631 | 37906 ft | 345 kts | 255° |
| 2026-05-09 04:06 | 33.39435 | -94.70225 | 37903 ft | 345 kts | 255° |
| 2026-05-09 04:06 | 33.38356 | -94.75818 | 37904 ft | 345 kts | 255° |
| 2026-05-09 04:07 | 33.37270 | -94.81424 | 37913 ft | 346 kts | 255° |
| 2026-05-09 04:07 | 33.36189 | -94.87023 | 37917 ft | 346 kts | 255° |
| 2026-05-09 04:08 | 33.35095 | -94.92632 | 37921 ft | 346 kts | 255° |
| 2026-05-09 04:08 | 33.33996 | -94.98248 | 37919 ft | 347 kts | 255° |
| 2026-05-09 04:09 | 33.32893 | -95.03869 | 37920 ft | 347 kts | 255° |
| 2026-05-09 04:09 | 33.31788 | -95.09499 | 37911 ft | 348 kts | 255° |
| 2026-05-09 04:10 | 33.30681 | -95.15132 | 37911 ft | 348 kts | 255° |
| 2026-05-09 04:10 | 33.29577 | -95.20772 | 37912 ft | 349 kts | 255° |
| 2026-05-09 04:11 | 33.28461 | -95.26421 | 37908 ft | 349 kts | 255° |
| 2026-05-09 04:11 | 33.27340 | -95.32074 | 37912 ft | 350 kts | 255° |
| 2026-05-09 04:12 | 33.26217 | -95.37733 | 37918 ft | 350 kts | 255° |
| 2026-05-09 04:12 | 33.25093 | -95.43394 | 37925 ft | 351 kts | 255° |
| 2026-05-09 04:13 | 33.23957 | -95.49066 | 37932 ft | 351 kts | 255° |
| 2026-05-09 04:13 | 33.22819 | -95.54746 | 37940 ft | 352 kts | 255° |
| 2026-05-09 04:14 | 33.21672 | -95.60431 | 37939 ft | 352 kts | 255° |
| 2026-05-09 04:14 | 33.20531 | -95.66120 | 37941 ft | 352 kts | 255° |
| 2026-05-09 04:15 | 33.19390 | -95.71809 | 37939 ft | 353 kts | 255° |
| 2026-05-09 04:15 | 33.18243 | -95.77500 | 37937 ft | 353 kts | 255° |
| 2026-05-09 04:16 | 33.17089 | -95.83191 | 37930 ft | 353 kts | 254° |
| 2026-05-09 04:16 | 33.15936 | -95.88883 | 37945 ft | 353 kts | 255° |
| 2026-05-09 04:17 | 33.14783 | -95.94570 | 37956 ft | 353 kts | 254° |
| 2026-05-09 04:17 | 33.13612 | -96.00272 | 37958 ft | 353 kts | 254° |
| 2026-05-09 04:18 | 33.12443 | -96.05962 | 37961 ft | 354 kts | 254° |
| 2026-05-09 04:18 | 33.11274 | -96.11660 | 37960 ft | 354 kts | 255° |
| 2026-05-09 04:19 | 33.10102 | -96.17371 | 37951 ft | 354 kts | 255° |
| 2026-05-09 04:19 | 33.08921 | -96.23082 | 37947 ft | 355 kts | 255° |
| 2026-05-09 04:20 | 33.07740 | -96.28799 | 37934 ft | 355 kts | 255° |
| 2026-05-09 04:20 | 33.06558 | -96.34524 | 37922 ft | 356 kts | 255° |
| 2026-05-09 04:21 | 33.05373 | -96.40253 | 37890 ft | 356 kts | 255° |
| 2026-05-09 04:22 | 33.03565 | -96.48900 | 37885 ft | 357 kts | 255° |
| 2026-05-09 04:22 | 33.02365 | -96.54634 | 37888 ft | 357 kts | 255° |
| 2026-05-09 04:23 | 33.01160 | -96.60384 | 37886 ft | 358 kts | 255° |
| 2026-05-09 04:23 | 32.99957 | -96.66150 | 37911 ft | 358 kts | 255° |
| 2026-05-09 04:24 | 32.98754 | -96.71901 | 37914 ft | 359 kts | 255° |
| 2026-05-09 04:24 | 32.97541 | -96.77670 | 37914 ft | 359 kts | 255° |
| 2026-05-09 04:25 | 32.96529 | -96.82467 | 37912 ft | 359 kts | 255° |
| 2026-05-09 04:25 | 32.95306 | -96.88233 | 37915 ft | 360 kts | 254° |
| 2026-05-09 04:26 | 32.94079 | -96.94005 | 37914 ft | 360 kts | 255° |
| 2026-05-09 04:26 | 32.92846 | -96.99792 | 37915 ft | 361 kts | 254° |
| 2026-05-09 04:27 | 32.91610 | -97.05574 | 37919 ft | 361 kts | 254° |
| 2026-05-09 04:27 | 32.90359 | -97.11376 | 37918 ft | 362 kts | 254° |
| 2026-05-09 04:28 | 32.89109 | -97.17178 | 37915 ft | 362 kts | 254° |
| 2026-05-09 04:28 | 32.88084 | -97.23054 | 37921 ft | 363 kts | 258° |
| 2026-05-09 04:29 | 32.87314 | -97.29002 | 37932 ft | 364 kts | 259° |
| 2026-05-09 04:29 | 32.86534 | -97.34988 | 37936 ft | 364 kts | 258° |
| 2026-05-09 04:30 | 32.85703 | -97.40926 | 37933 ft | 364 kts | 258° |
| 2026-05-09 04:30 | 32.84847 | -97.46858 | 37941 ft | 364 kts | 258° |
| 2026-05-09 04:31 | 32.83985 | -97.52789 | 37941 ft | 364 kts | 258° |
| 2026-05-09 04:31 | 32.83128 | -97.58731 | 37925 ft | 365 kts | 258° |
| 2026-05-09 04:32 | 32.82270 | -97.64675 | 37964 ft | 366 kts | 258° |
| 2026-05-09 04:32 | 32.81411 | -97.70637 | 37963 ft | 367 kts | 258° |
| 2026-05-09 04:33 | 32.80541 | -97.76616 | 37954 ft | 367 kts | 258° |
| 2026-05-09 04:33 | 32.79663 | -97.82608 | 37941 ft | 368 kts | 258° |
| 2026-05-09 04:34 | 32.78788 | -97.88606 | 37893 ft | 369 kts | 258° |
| 2026-05-09 04:34 | 32.77902 | -97.94621 | 37896 ft | 369 kts | 258° |
| 2026-05-09 04:35 | 32.77018 | -98.00635 | 37897 ft | 370 kts | 258° |
| 2026-05-09 04:35 | 32.76130 | -98.06661 | 37899 ft | 370 kts | 258° |
| 2026-05-09 04:36 | 32.75230 | -98.12690 | 37906 ft | 371 kts | 258° |
| 2026-05-09 04:36 | 32.74330 | -98.18735 | 37906 ft | 372 kts | 257° |
| 2026-05-09 04:37 | 32.73427 | -98.24782 | 37893 ft | 372 kts | 257° |
| 2026-05-09 04:37 | 32.72514 | -98.30831 | 37884 ft | 372 kts | 257° |
| 2026-05-09 04:38 | 32.71599 | -98.36889 | 37872 ft | 373 kts | 257° |
| 2026-05-09 04:38 | 32.70683 | -98.42958 | 37870 ft | 373 kts | 257° |
| 2026-05-09 04:39 | 32.69768 | -98.49029 | 37868 ft | 374 kts | 257° |
| 2026-05-09 04:39 | 32.68848 | -98.55102 | 37878 ft | 374 kts | 257° |
| 2026-05-09 04:40 | 32.67921 | -98.61185 | 37891 ft | 375 kts | 257° |
| 2026-05-09 04:40 | 32.66995 | -98.67263 | 37897 ft | 375 kts | 257° |
| 2026-05-09 04:41 | 32.66054 | -98.73350 | 37907 ft | 375 kts | 257° |
| 2026-05-09 04:41 | 32.65109 | -98.79436 | 37912 ft | 375 kts | 256° |
| 2026-05-09 04:42 | 32.64165 | -98.85537 | 37923 ft | 376 kts | 256° |
| 2026-05-09 04:42 | 32.63220 | -98.91636 | 37924 ft | 376 kts | 256° |
| 2026-05-09 04:43 | 32.62272 | -98.97752 | 37909 ft | 377 kts | 256° |
| 2026-05-09 04:43 | 32.61313 | -99.03914 | 37905 ft | 378 kts | 256° |
| 2026-05-09 04:44 | 32.60353 | -99.10040 | 37893 ft | 379 kts | 256° |
| 2026-05-09 04:44 | 32.59383 | -99.16184 | 37879 ft | 379 kts | 256° |
| 2026-05-09 04:45 | 32.58413 | -99.22340 | 37868 ft | 380 kts | 256° |
| 2026-05-09 04:45 | 32.57443 | -99.28512 | 37854 ft | 381 kts | 256° |
| 2026-05-09 04:46 | 32.56460 | -99.34683 | 37862 ft | 381 kts | 256° |
| 2026-05-09 04:46 | 32.55470 | -99.40861 | 37877 ft | 382 kts | 256° |
| 2026-05-09 04:47 | 32.54482 | -99.47058 | 37888 ft | 383 kts | 256° |
| 2026-05-09 04:47 | 32.53490 | -99.53266 | 37897 ft | 384 kts | 256° |
| 2026-05-09 04:48 | 32.52488 | -99.59491 | 37907 ft | 385 kts | 256° |
| 2026-05-09 04:48 | 32.51484 | -99.65712 | 37910 ft | 385 kts | 256° |
| 2026-05-09 04:49 | 32.50473 | -99.71959 | 37909 ft | 386 kts | 256° |
| 2026-05-09 04:49 | 32.49462 | -99.78218 | 37881 ft | 388 kts | 256° |
| 2026-05-09 04:50 | 32.48437 | -99.84492 | 37881 ft | 389 kts | 256° |
| 2026-05-09 04:50 | 32.47894 | -99.90903 | 37882 ft | 393 kts | 263° |
| 2026-05-09 04:51 | 32.47554 | -99.97365 | 37876 ft | 394 kts | 263° |
| 2026-05-09 04:51 | 32.47202 | -100.03842 | 37866 ft | 395 kts | 263° |
| 2026-05-09 04:52 | 32.46844 | -100.10338 | 37849 ft | 396 kts | 263° |
| 2026-05-09 04:52 | 32.46484 | -100.16861 | 37877 ft | 397 kts | 263° |
| 2026-05-09 04:53 | 32.46131 | -100.23403 | 37906 ft | 399 kts | 263° |
| 2026-05-09 04:53 | 32.45766 | -100.29960 | 37937 ft | 400 kts | 263° |
| 2026-05-09 04:54 | 32.45391 | -100.36539 | 37964 ft | 401 kts | 263° |
| 2026-05-09 04:54 | 32.45012 | -100.43142 | 37966 ft | 403 kts | 263° |
| 2026-05-09 04:55 | 32.44633 | -100.49763 | 37966 ft | 404 kts | 264° |
| 2026-05-09 04:55 | 32.44248 | -100.56413 | 37969 ft | 405 kts | 264° |
| 2026-05-09 04:56 | 32.43856 | -100.63118 | 37930 ft | 406 kts | 264° |
| 2026-05-09 04:56 | 32.43459 | -100.69787 | 37903 ft | 407 kts | 264° |
| 2026-05-09 04:57 | 32.43063 | -100.76474 | 37867 ft | 408 kts | 264° |
| 2026-05-09 04:57 | 32.42664 | -100.83174 | 37870 ft | 408 kts | 264° |
| 2026-05-09 04:58 | 32.42255 | -100.89878 | 37866 ft | 409 kts | 264° |
| 2026-05-09 04:58 | 32.41841 | -100.96608 | 37859 ft | 410 kts | 264° |
| 2026-05-09 04:59 | 32.41428 | -101.03348 | 37867 ft | 411 kts | 264° |
| 2026-05-09 04:59 | 32.41008 | -101.10091 | 37857 ft | 411 kts | 264° |
| 2026-05-09 05:00 | 32.40584 | -101.16852 | 37821 ft | 412 kts | 264° |
| 2026-05-09 05:00 | 32.40159 | -101.23615 | 37855 ft | 412 kts | 264° |
| 2026-05-09 05:01 | 32.39795 | -101.29242 | 37865 ft | 413 kts | 264° |
| 2026-05-09 05:01 | 32.39355 | -101.36051 | 37894 ft | 413 kts | 264° |
| 2026-05-09 05:02 | 32.38913 | -101.42834 | 37909 ft | 413 kts | 264° |
| 2026-05-09 05:02 | 32.38470 | -101.49615 | 37924 ft | 414 kts | 264° |
| 2026-05-09 05:03 | 32.37998 | -101.56409 | 37927 ft | 414 kts | 264° |
| 2026-05-09 05:03 | 32.37498 | -101.63198 | 37922 ft | 415 kts | 264° |
| 2026-05-09 05:04 | 32.36995 | -101.69993 | 37906 ft | 415 kts | 264° |
| 2026-05-09 05:04 | 32.36491 | -101.76796 | 37887 ft | 415 kts | 264° |
| 2026-05-09 05:05 | 32.35990 | -101.83593 | 37856 ft | 415 kts | 264° |
| 2026-05-09 05:05 | 32.35488 | -101.90394 | 37838 ft | 415 kts | 264° |
| 2026-05-09 05:06 | 32.34982 | -101.97244 | 37858 ft | 415 kts | 264° |
| 2026-05-09 05:06 | 32.34460 | -102.04049 | 37864 ft | 416 kts | 264° |
| 2026-05-09 05:07 | 32.33936 | -102.10852 | 37871 ft | 416 kts | 264° |
| 2026-05-09 05:07 | 32.33417 | -102.17622 | 37873 ft | 416 kts | 264° |
| 2026-05-09 05:08 | 32.32890 | -102.24476 | 37875 ft | 416 kts | 264° |
| 2026-05-09 05:08 | 32.32367 | -102.31294 | 37863 ft | 416 kts | 264° |
| 2026-05-09 05:09 | 32.31837 | -102.38118 | 37854 ft | 416 kts | 264° |
| 2026-05-09 05:09 | 32.31301 | -102.44933 | 37851 ft | 417 kts | 265° |
| 2026-05-09 05:10 | 32.30766 | -102.51752 | 37851 ft | 417 kts | 265° |
| 2026-05-09 05:10 | 32.30222 | -102.58570 | 37852 ft | 417 kts | 265° |
| 2026-05-09 05:11 | 32.29676 | -102.65389 | 37854 ft | 417 kts | 265° |
| 2026-05-09 05:11 | 32.29124 | -102.72200 | 37854 ft | 417 kts | 265° |
| 2026-05-09 05:12 | 32.28568 | -102.79026 | 37862 ft | 417 kts | 265° |
| 2026-05-09 05:12 | 32.28011 | -102.85842 | 37856 ft | 417 kts | 265° |
| 2026-05-09 05:13 | 32.27444 | -102.92663 | 37856 ft | 417 kts | 265° |
| 2026-05-09 05:13 | 32.26872 | -102.99479 | 37859 ft | 417 kts | 265° |
| 2026-05-09 05:14 | 32.26300 | -103.06291 | 37862 ft | 417 kts | 265° |
| 2026-05-09 05:14 | 32.25731 | -103.13115 | 37863 ft | 417 kts | 265° |
| 2026-05-09 05:15 | 32.25152 | -103.19934 | 37865 ft | 417 kts | 265° |
| 2026-05-09 05:15 | 32.24565 | -103.26742 | 37865 ft | 417 kts | 265° |
| 2026-05-09 05:16 | 32.23980 | -103.33563 | 37859 ft | 417 kts | 265° |
| 2026-05-09 05:16 | 32.23393 | -103.40371 | 37858 ft | 417 kts | 265° |
| 2026-05-09 05:17 | 32.22802 | -103.47181 | 37856 ft | 417 kts | 265° |
| 2026-05-09 05:17 | 32.22204 | -103.53986 | 37858 ft | 417 kts | 265° |
| 2026-05-09 05:18 | 32.21598 | -103.60790 | 37857 ft | 417 kts | 265° |
| 2026-05-09 05:18 | 32.20992 | -103.67606 | 37852 ft | 417 kts | 265° |
| 2026-05-09 05:19 | 32.20393 | -103.74413 | 37858 ft | 417 kts | 265° |
| 2026-05-09 05:19 | 32.19782 | -103.81226 | 37851 ft | 417 kts | 265° |
| 2026-05-09 05:20 | 32.19164 | -103.88028 | 37849 ft | 417 kts | 265° |
| 2026-05-09 05:20 | 32.18547 | -103.94839 | 37874 ft | 417 kts | 265° |
| 2026-05-09 05:21 | 32.17929 | -104.01653 | 37899 ft | 417 kts | 265° |
| 2026-05-09 05:21 | 32.17299 | -104.08466 | 37915 ft | 417 kts | 265° |
| 2026-05-09 05:22 | 32.16670 | -104.15267 | 37933 ft | 417 kts | 265° |
| 2026-05-09 05:22 | 32.16042 | -104.22074 | 37938 ft | 417 kts | 266° |
| 2026-05-09 05:23 | 32.15408 | -104.28870 | 37935 ft | 417 kts | 265° |
| 2026-05-09 05:23 | 32.14753 | -104.35720 | 37922 ft | 417 kts | 265° |
| 2026-05-09 05:24 | 32.14101 | -104.42515 | 37912 ft | 417 kts | 266° |
| 2026-05-09 05:24 | 32.13459 | -104.49309 | 37894 ft | 417 kts | 266° |
| 2026-05-09 05:25 | 32.12818 | -104.56105 | 37870 ft | 416 kts | 266° |
| 2026-05-09 05:25 | 32.11832 | -104.66278 | 37858 ft | 416 kts | 266° |
| 2026-05-09 05:26 | 32.11174 | -104.73112 | 37861 ft | 416 kts | 266° |
| 2026-05-09 05:26 | 32.10516 | -104.79848 | 37855 ft | 416 kts | 266° |
| 2026-05-09 05:27 | 32.09843 | -104.86665 | 37855 ft | 416 kts | 266° |
| 2026-05-09 05:27 | 32.09165 | -104.93443 | 37867 ft | 416 kts | 266° |
| 2026-05-09 05:28 | 32.08499 | -105.00209 | 37861 ft | 416 kts | 266° |
| 2026-05-09 05:28 | 32.07831 | -105.06978 | 37858 ft | 415 kts | 266° |
| 2026-05-09 05:29 | 32.07152 | -105.13732 | 37863 ft | 415 kts | 266° |
| 2026-05-09 05:29 | 32.06467 | -105.20497 | 37861 ft | 415 kts | 266° |
| 2026-05-09 05:30 | 32.05779 | -105.27252 | 37867 ft | 415 kts | 266° |
| 2026-05-09 05:30 | 32.05089 | -105.33994 | 37857 ft | 415 kts | 266° |
| 2026-05-09 05:31 | 32.04395 | -105.40748 | 37867 ft | 415 kts | 266° |
| 2026-05-09 05:31 | 32.03692 | -105.47497 | 37855 ft | 415 kts | 266° |
| 2026-05-09 05:32 | 32.02994 | -105.54237 | 37855 ft | 415 kts | 266° |
| 2026-05-09 05:32 | 32.02294 | -105.60980 | 37857 ft | 415 kts | 266° |
| 2026-05-09 05:33 | 32.01585 | -105.67724 | 37851 ft | 415 kts | 266° |
| 2026-05-09 05:33 | 32.00877 | -105.74472 | 37854 ft | 415 kts | 266° |
| 2026-05-09 05:34 | 32.00161 | -105.81211 | 37854 ft | 415 kts | 266° |
| 2026-05-09 05:34 | 31.99560 | -105.86852 | 37852 ft | 415 kts | 266° |
| 2026-05-09 05:35 | 31.98845 | -105.93596 | 37840 ft | 415 kts | 266° |
| 2026-05-09 05:35 | 31.98127 | -106.00343 | 37849 ft | 415 kts | 266° |
| 2026-05-09 05:36 | 31.97400 | -106.07089 | 37877 ft | 415 kts | 266° |
| 2026-05-09 05:36 | 31.96653 | -106.13839 | 37911 ft | 416 kts | 266° |
| 2026-05-09 05:37 | 31.95901 | -106.20587 | 37945 ft | 416 kts | 266° |
| 2026-05-09 05:37 | 31.95317 | -106.27340 | 37974 ft | 413 kts | 274° |
| 2026-05-09 05:38 | 31.95984 | -106.34012 | 37989 ft | 410 kts | 280° |
| 2026-05-09 05:38 | 31.96768 | -106.40665 | 37982 ft | 411 kts | 280° |
| 2026-05-09 05:39 | 31.97541 | -106.47332 | 37964 ft | 411 kts | 280° |
| 2026-05-09 05:39 | 31.98319 | -106.54005 | 37962 ft | 411 kts | 280° |
| 2026-05-09 05:40 | 31.99089 | -106.60688 | 37988 ft | 412 kts | 280° |
| 2026-05-09 05:40 | 31.99857 | -106.67371 | 38004 ft | 412 kts | 280° |
| 2026-05-09 05:41 | 32.00622 | -106.74053 | 38002 ft | 412 kts | 279° |
| 2026-05-09 05:41 | 32.01385 | -106.80739 | 37978 ft | 412 kts | 279° |
| 2026-05-09 05:42 | 32.02146 | -106.87425 | 37946 ft | 412 kts | 279° |
| 2026-05-09 05:42 | 32.02910 | -106.94173 | 37910 ft | 412 kts | 279° |
| 2026-05-09 05:43 | 32.03665 | -107.00860 | 37908 ft | 412 kts | 279° |
| 2026-05-09 05:43 | 32.04413 | -107.07522 | 37897 ft | 412 kts | 279° |
| 2026-05-09 05:44 | 32.05178 | -107.14260 | 37877 ft | 412 kts | 279° |
| 2026-05-09 05:44 | 32.05922 | -107.20957 | 37853 ft | 412 kts | 279° |
| 2026-05-09 05:45 | 32.06660 | -107.27664 | 37833 ft | 412 kts | 279° |
| 2026-05-09 05:45 | 32.07394 | -107.34376 | 37837 ft | 412 kts | 279° |
| 2026-05-09 05:46 | 32.08131 | -107.41084 | 37868 ft | 413 kts | 279° |
| 2026-05-09 05:46 | 32.08866 | -107.47796 | 37911 ft | 413 kts | 279° |
| 2026-05-09 05:47 | 32.09589 | -107.54512 | 37947 ft | 413 kts | 279° |
| 2026-05-09 05:47 | 32.10311 | -107.61226 | 37976 ft | 413 kts | 279° |
| 2026-05-09 05:48 | 32.11030 | -107.67942 | 37998 ft | 413 kts | 279° |
| 2026-05-09 05:48 | 32.11746 | -107.74669 | 38005 ft | 413 kts | 279° |
| 2026-05-09 05:49 | 32.12458 | -107.81397 | 37997 ft | 414 kts | 279° |
| 2026-05-09 05:49 | 32.13169 | -107.88135 | 37971 ft | 414 kts | 279° |
| 2026-05-09 05:50 | 32.13882 | -107.94881 | 37943 ft | 414 kts | 278° |
| 2026-05-09 05:50 | 32.14587 | -108.01634 | 37909 ft | 415 kts | 278° |
| 2026-05-09 05:51 | 32.15288 | -108.08385 | 37872 ft | 415 kts | 278° |
| 2026-05-09 05:51 | 32.15989 | -108.15188 | 37855 ft | 415 kts | 278° |
| 2026-05-09 05:52 | 32.16684 | -108.21907 | 37854 ft | 415 kts | 278° |
| 2026-05-09 05:52 | 32.17387 | -108.28707 | 37860 ft | 415 kts | 278° |
| 2026-05-09 05:53 | 32.18069 | -108.35466 | 37886 ft | 415 kts | 278° |
| 2026-05-09 05:53 | 32.18745 | -108.42235 | 37936 ft | 415 kts | 278° |
| 2026-05-09 05:54 | 32.19425 | -108.49001 | 37969 ft | 415 kts | 278° |
| 2026-05-09 05:54 | 32.20105 | -108.55763 | 38009 ft | 415 kts | 278° |
| 2026-05-09 05:55 | 32.20780 | -108.62541 | 38033 ft | 415 kts | 278° |
| 2026-05-09 05:55 | 32.21454 | -108.69313 | 38048 ft | 415 kts | 278° |
| 2026-05-09 05:56 | 32.22125 | -108.76092 | 38041 ft | 416 kts | 278° |
| 2026-05-09 05:56 | 32.22788 | -108.82879 | 38019 ft | 416 kts | 278° |
| 2026-05-09 05:57 | 32.23443 | -108.89666 | 37991 ft | 416 kts | 278° |
| 2026-05-09 05:57 | 32.24101 | -108.96464 | 37954 ft | 417 kts | 278° |
| 2026-05-09 05:58 | 32.24751 | -109.03270 | 37918 ft | 417 kts | 277° |
| 2026-05-09 05:58 | 32.25402 | -109.10076 | 37877 ft | 417 kts | 277° |
| 2026-05-09 05:59 | 32.26050 | -109.16884 | 37869 ft | 417 kts | 277° |
| 2026-05-09 05:59 | 32.26692 | -109.23712 | 37872 ft | 418 kts | 277° |
| 2026-05-09 06:00 | 32.27022 | -109.27123 | 37703 ft | 418 kts | 278° |
| 2026-05-09 06:00 | 32.27441 | -109.30522 | 37432 ft | 418 kts | 280° |
| 2026-05-09 06:00 | 32.27943 | -109.33896 | 37158 ft | 418 kts | 282° |
| 2026-05-09 06:00 | 32.28490 | -109.37270 | 36907 ft | 418 kts | 282° |
| 2026-05-09 06:01 | 32.29049 | -109.40648 | 36640 ft | 419 kts | 282° |
| 2026-05-09 06:01 | 32.29598 | -109.44030 | 36383 ft | 420 kts | 282° |
| 2026-05-09 06:01 | 32.30132 | -109.47428 | 36139 ft | 421 kts | 281° |
| 2026-05-09 06:01 | 32.30650 | -109.50845 | 35881 ft | 422 kts | 281° |
| 2026-05-09 06:02 | 32.31157 | -109.54257 | 35614 ft | 421 kts | 281° |
| 2026-05-09 06:02 | 32.31656 | -109.57650 | 35114 ft | 418 kts | 281° |
| 2026-05-09 06:02 | 32.32154 | -109.61033 | 34559 ft | 417 kts | 281° |
| 2026-05-09 06:02 | 32.32650 | -109.64407 | 34002 ft | 416 kts | 281° |
| 2026-05-09 06:03 | 32.33145 | -109.67764 | 33400 ft | 414 kts | 281° |
| 2026-05-09 06:03 | 32.33640 | -109.71107 | 32843 ft | 411 kts | 281° |
| 2026-05-09 06:03 | 32.34131 | -109.74425 | 32283 ft | 408 kts | 281° |
| 2026-05-09 06:03 | 32.34620 | -109.77717 | 31727 ft | 406 kts | 281° |
| 2026-05-09 06:04 | 32.35105 | -109.81006 | 31161 ft | 404 kts | 281° |
| 2026-05-09 06:04 | 32.35587 | -109.84272 | 30608 ft | 403 kts | 281° |
| 2026-05-09 06:04 | 32.36069 | -109.87527 | 30052 ft | 402 kts | 281° |
| 2026-05-09 06:04 | 32.36546 | -109.90778 | 29435 ft | 400 kts | 281° |
| 2026-05-09 06:05 | 32.37017 | -109.94004 | 28917 ft | 397 kts | 281° |
| 2026-05-09 06:05 | 32.37484 | -109.97208 | 28396 ft | 394 kts | 281° |
| 2026-05-09 06:05 | 32.37944 | -110.00388 | 27870 ft | 391 kts | 281° |
| 2026-05-09 06:05 | 32.38407 | -110.03588 | 27390 ft | 389 kts | 281° |
| 2026-05-09 06:06 | 32.38858 | -110.06692 | 26894 ft | 387 kts | 281° |
| 2026-05-09 06:06 | 32.39314 | -110.09820 | 26419 ft | 385 kts | 281° |
| 2026-05-09 06:06 | 32.39775 | -110.12970 | 25940 ft | 383 kts | 281° |
| 2026-05-09 06:06 | 32.40227 | -110.16079 | 25466 ft | 382 kts | 281° |
| 2026-05-09 06:07 | 32.40674 | -110.19173 | 24992 ft | 381 kts | 281° |
| 2026-05-09 06:07 | 32.41119 | -110.22265 | 24503 ft | 380 kts | 280° |
| 2026-05-09 06:07 | 32.41559 | -110.25335 | 24028 ft | 378 kts | 280° |
| 2026-05-09 06:07 | 32.41999 | -110.28406 | 23522 ft | 378 kts | 280° |
| 2026-05-09 06:08 | 32.42440 | -110.31465 | 22964 ft | 376 kts | 280° |
| 2026-05-09 06:08 | 32.42877 | -110.34503 | 22443 ft | 373 kts | 280° |
| 2026-05-09 06:08 | 32.43309 | -110.37512 | 21930 ft | 370 kts | 280° |
| 2026-05-09 06:08 | 32.43590 | -110.39494 | 21582 ft | 367 kts | 280° |
| 2026-05-09 06:09 | 32.44012 | -110.42467 | 21065 ft | 364 kts | 280° |
| 2026-05-09 06:09 | 32.44428 | -110.45410 | 20548 ft | 361 kts | 280° |
| 2026-05-09 06:09 | 32.44840 | -110.48329 | 20029 ft | 358 kts | 279° |
| 2026-05-09 06:09 | 32.45248 | -110.51228 | 19508 ft | 356 kts | 279° |
| 2026-05-09 06:10 | 32.45657 | -110.54115 | 18988 ft | 355 kts | 279° |
| 2026-05-09 06:10 | 32.46063 | -110.56990 | 18474 ft | 354 kts | 279° |
| 2026-05-09 06:10 | 32.46469 | -110.59857 | 17930 ft | 353 kts | 279° |
| 2026-05-09 06:10 | 32.46874 | -110.62720 | 17382 ft | 351 kts | 279° |
| 2026-05-09 06:11 | 32.47280 | -110.65610 | 16866 ft | 349 kts | 279° |
| 2026-05-09 06:11 | 32.47674 | -110.68432 | 16393 ft | 346 kts | 280° |
| 2026-05-09 06:11 | 32.48060 | -110.71193 | 15899 ft | 344 kts | 280° |
| 2026-05-09 06:11 | 32.48455 | -110.74019 | 15387 ft | 344 kts | 281° |
| 2026-05-09 06:12 | 32.48840 | -110.76772 | 14880 ft | 343 kts | 281° |
| 2026-05-09 06:12 | 32.48972 | -110.77715 | 14702 ft | 342 kts | 281° |
| 2026-05-09 06:12 | 32.49085 | -110.78529 | 14558 ft | 342 kts | 281° |
| 2026-05-09 06:12 | 32.49497 | -110.80862 | 14183 ft | 338 kts | 283° |
| 2026-05-09 06:13 | 32.49928 | -110.83655 | 13588 ft | 341 kts | 281° |
| 2026-05-09 06:13 | 32.50290 | -110.86416 | 13043 ft | 339 kts | 280° |
| 2026-05-09 06:13 | 32.50630 | -110.89170 | 12524 ft | 336 kts | 280° |
| 2026-05-09 06:13 | 32.50971 | -110.91903 | 12020 ft | 334 kts | 280° |
| 2026-05-09 06:14 | 32.51319 | -110.94609 | 11506 ft | 331 kts | 279° |
| 2026-05-09 06:14 | 32.51389 | -110.97321 | 10966 ft | 326 kts | 270° |
| 2026-05-09 06:14 | 32.51292 | -110.99959 | 10413 ft | 319 kts | 269° |
| 2026-05-09 06:14 | 32.51191 | -111.02304 | 10026 ft | 310 kts | 269° |
| 2026-05-09 06:15 | 32.51082 | -111.04793 | 10028 ft | 298 kts | 270° |
| 2026-05-09 06:15 | 32.51026 | -111.07246 | 9946 ft | 297 kts | 271° |
| 2026-05-09 06:15 | 32.50980 | -111.09669 | 9535 ft | 292 kts | 271° |
| 2026-05-09 06:15 | 32.50933 | -111.12062 | 9037 ft | 289 kts | 271° |
| 2026-05-09 06:16 | 32.50892 | -111.14427 | 8540 ft | 286 kts | 271° |
| 2026-05-09 06:16 | 32.50853 | -111.16766 | 8066 ft | 283 kts | 271° |
| 2026-05-09 06:16 | 32.50817 | -111.19086 | 7585 ft | 280 kts | 271° |
| 2026-05-09 06:16 | 32.50784 | -111.21362 | 7349 ft | 269 kts | 271° |
| 2026-05-09 06:17 | 32.50730 | -111.23546 | 7324 ft | 262 kts | 272° |
| 2026-05-09 06:17 | 32.50915 | -111.25646 | 7284 ft | 254 kts | 289° |
| 2026-05-09 06:17 | 32.51772 | -111.27399 | 7146 ft | 244 kts | 315° |
| 2026-05-09 06:17 | 32.53012 | -111.28762 | 6838 ft | 242 kts | 318° |
| 2026-05-09 06:18 | 32.54205 | -111.30110 | 6723 ft | 231 kts | 314° |
| 2026-05-09 06:18 | 32.55253 | -111.31497 | 6602 ft | 221 kts | 310° |
| 2026-05-09 06:18 | 32.56238 | -111.32869 | 6398 ft | 217 kts | 311° |
| 2026-05-09 06:18 | 32.57213 | -111.34182 | 6187 ft | 204 kts | 312° |
| 2026-05-09 06:19 | 32.58125 | -111.35380 | 5958 ft | 189 kts | 312° |
| 2026-05-09 06:19 | 32.58990 | -111.36502 | 5615 ft | 182 kts | 312° |
| 2026-05-09 06:19 | 32.59846 | -111.37586 | 5254 ft | 178 kts | 313° |
| 2026-05-09 06:19 | 32.60682 | -111.38644 | 4906 ft | 173 kts | 311° |
| 2026-05-09 06:20 | 32.61479 | -111.39646 | 4674 ft | 160 kts | 312° |
| 2026-05-09 06:20 | 32.62169 | -111.40598 | 4453 ft | 145 kts | 298° |
| 2026-05-09 06:20 | 32.62306 | -111.41683 | 4241 ft | 133 kts | 259° |
| 2026-05-09 06:20 | 32.61722 | -111.42564 | 4072 ft | 142 kts | 216° |
| 2026-05-09 06:21 | 32.60729 | -111.42722 | 3867 ft | 152 kts | 172° |
| 2026-05-09 06:21 | 32.59794 | -111.42101 | 3726 ft | 155 kts | 149° |
| 2026-05-09 06:21 | 32.58933 | -111.41353 | 3550 ft | 153 kts | 146° |
| 2026-05-09 06:21 | 32.58103 | -111.40538 | 3430 ft | 155 kts | 142° |
| 2026-05-09 06:22 | 32.57318 | -111.39668 | 3280 ft | 154 kts | 140° |
| 2026-05-09 06:22 | 32.56514 | -111.38820 | 3096 ft | 154 kts | 143° |
| 2026-05-09 06:22 | 32.55707 | -111.38002 | 2956 ft | 151 kts | 142° |
| 2026-05-09 06:22 | 32.54944 | -111.37164 | 2801 ft | 147 kts | 136° |
| 2026-05-09 06:23 | 32.54226 | -111.36357 | 2677 ft | 138 kts | 137° |
| 2026-05-09 06:23 | 32.53551 | -111.35575 | 2476 ft | 134 kts | 135° |
| 2026-05-09 06:23 | 32.52917 | -111.34818 | 2301 ft | 125 kts | 135° |
| 2026-05-09 06:23 | 32.52289 | -111.34089 | 2049 ft | 127 kts | 134° |
| 2026-05-09 06:24 | 32.51670 | -111.33344 | 1926 ft | 127 kts | 136° |
| 2026-05-09 06:24 | 32.51112 | -111.32688 | 1887 ft | 82 kts | 135° |
| 2026-05-09 06:24 | 32.50864 | -111.32395 | 1888 ft | 40 kts | 135° |
| 2026-05-09 06:24 | 32.50675 | -111.32171 | 1900 ft | 38 kts | 135° |
| 2026-05-09 06:25 | 32.50494 | -111.31958 | 1893 ft | 36 kts | 135° |
| 2026-05-09 06:25 | 32.50369 | -111.31805 | 1899 ft | 12 kts | 116° |
| 2026-05-09 06:25 | 32.50417 | -111.31725 | 1889 ft | 14 kts | 40° |
| 2026-05-09 06:25 | 32.50506 | -111.31728 | 1896 ft | 16 kts | 317° |
| 2026-05-09 06:26 | 32.50600 | -111.31832 | 1893 ft | 20 kts | 315° |
| 2026-05-09 06:26 | 32.50687 | -111.31933 | 1903 ft | 11 kts | 316° |
| 2026-05-09 06:26 | 32.50742 | -111.31918 | 1900 ft | 10 kts | 49° |
| 2026-05-09 06:26 | 32.50770 | -111.31887 | 1903 ft | 0 kts | 43° |